Pagina principale
METAR-TAF:

METAR-TAF

Aeroporti :

Monte Scuro, Italia

latitudine: 39-20N, longitudine: 016-24E, altezza: 1710 m

Osservazione

Il bollettino è stato emesso 1 ora e 6 minuti fa, alle 17:55 UTC
Vento 7 kt da ovest/sud-ovest, variando fra sud/sud-ovest e ovest
Temperature 0°C
Umidità 93%
Pressione 1010 hPa
Visibilità 10 km o più
Poco nuvoloso ad un'altezza di 600 ft

METAR: LIBQ 191755Z 25007KT 210V270 9999 FEW006 00/M01 Q1010 RMK FEW MON LIB VAL NIL VIS MIN 9999

Ora: 20:01 (19:01 UTC)


TAF: mancante

Osservazioni e previsioni meteorologiche di più di 4000 aeroporti (messaggi METAR e TAF).

Le stazioni disponibili sono rappresentate dai dischi gialli e rossi sulla carta.

Puntare il mouse per vedere il nome della stazione.

Clicca sopra per visualizzare le osservazioni e previsioni meteorologiche.

Per cambiare la mappa : fare clic sui pulsanti verdi con una croce nera per ingrandire, il pulsante verde con un trattino per diminuire, o sulla freccia verde per le mappe adiacenti.


METAR-TAF: